createdAt,value
2018-11-10T00:01:02.167Z,17.48
2018-11-10T00:02:06.452Z,22.40
2018-11-10T00:03:10.500Z,20.32
2018-11-10T00:04:14.601Z,23.12
2018-11-10T00:05:19.619Z,20.60
2018-11-10T00:06:23.687Z,19.95
2018-11-10T00:07:27.804Z,22.60
2018-11-10T00:08:31.889Z,18.80
2018-11-10T00:09:36.058Z,20.92
2018-11-10T00:10:40.083Z,21.20
2018-11-10T00:11:44.306Z,20.82
2018-11-10T00:12:49.022Z,20.72
2018-11-10T00:13:53.369Z,22.52
2018-11-10T00:14:57.532Z,22.58
2018-11-10T00:16:01.647Z,23.25
2018-11-10T00:17:06.449Z,27.25
2018-11-10T00:18:10.658Z,27.13
2018-11-10T00:19:15.328Z,20.45
2018-11-10T00:20:19.432Z,21.48
2018-11-10T00:21:23.471Z,19.62
2018-11-10T00:22:27.745Z,24.47
2018-11-10T00:23:31.927Z,21.45
2018-11-10T00:24:35.996Z,21.12
2018-11-10T00:25:40.088Z,21.27
2018-11-10T00:26:44.288Z,30.88
2018-11-10T00:27:48.450Z,23.52
2018-11-10T00:28:52.761Z,21.97
2018-11-10T00:29:56.907Z,22.90
2018-11-10T00:31:01.115Z,18.85
2018-11-10T00:32:05.893Z,21.12
2018-11-10T00:33:10.176Z,21.82
2018-11-10T00:34:14.355Z,20.15
2018-11-10T00:35:18.487Z,20.20
2018-11-10T00:36:22.691Z,23.87
2018-11-10T00:37:26.994Z,23.98
2018-11-10T00:38:31.122Z,24.98
2018-11-10T00:39:35.204Z,31.55
2018-11-10T00:40:39.291Z,23.60
2018-11-10T00:41:43.371Z,23.07
2018-11-10T00:42:47.515Z,22.37
2018-11-10T00:43:51.618Z,26.07
2018-11-10T00:44:55.716Z,24.00
2018-11-10T00:45:59.929Z,26.65
2018-11-10T00:47:04.089Z,22.67
2018-11-10T00:48:08.271Z,23.90
2018-11-10T00:49:12.444Z,22.35
2018-11-10T00:50:16.659Z,24.35
2018-11-10T00:51:21.866Z,25.75
2018-11-10T00:52:28.223Z,21.30
2018-11-10T00:53:32.389Z,21.90
2018-11-10T00:54:36.444Z,19.73
2018-11-10T00:55:40.576Z,21.73
2018-11-10T00:56:44.814Z,23.55
2018-11-10T00:57:48.887Z,20.85
2018-11-10T00:58:52.955Z,26.70
2018-11-10T00:59:57.161Z,20.52
2018-11-10T01:01:01.406Z,25.68
2018-11-10T01:02:05.603Z,22.10
2018-11-10T01:03:09.808Z,24.60
2018-11-10T01:04:13.890Z,24.10
2018-11-10T01:05:18.028Z,25.65
2018-11-10T01:06:22.144Z,23.02
2018-11-10T01:07:26.353Z,23.40
2018-11-10T01:08:30.475Z,22.22
2018-11-10T01:09:34.634Z,23.73
2018-11-10T01:10:38.702Z,21.20
2018-11-10T01:11:42.844Z,25.23
2018-11-10T01:12:47.110Z,24.32
2018-11-10T01:13:51.139Z,24.77
2018-11-10T01:14:55.603Z,24.27
2018-11-10T01:15:59.880Z,33.00
2018-11-10T01:17:03.980Z,20.88
2018-11-10T01:18:08.120Z,27.17
2018-11-10T01:19:12.433Z,25.80
2018-11-10T01:20:16.497Z,20.27
2018-11-10T01:21:20.608Z,20.57
2018-11-10T01:22:24.697Z,24.95
2018-11-10T01:23:29.247Z,22.00
2018-11-10T01:24:33.416Z,26.45
2018-11-10T01:25:37.557Z,27.30
2018-11-10T01:26:41.670Z,22.05
2018-11-10T01:27:45.824Z,24.57
2018-11-10T01:28:49.867Z,27.02
2018-11-10T01:29:53.976Z,23.30
2018-11-10T01:30:58.071Z,28.65
2018-11-10T01:32:02.209Z,24.10
2018-11-10T01:33:06.224Z,24.80
2018-11-10T01:34:10.435Z,25.80
2018-11-10T01:35:14.987Z,20.68
2018-11-10T01:36:19.046Z,24.02
2018-11-10T01:37:23.115Z,27.22
2018-11-10T01:38:27.227Z,27.22
2018-11-10T01:39:31.266Z,29.55
2018-11-10T01:40:35.360Z,23.95
2018-11-10T01:41:39.792Z,22.73
2018-11-10T01:42:44.410Z,23.12
2018-11-10T01:43:48.555Z,34.90
2018-11-10T01:44:52.662Z,21.85
2018-11-10T01:45:56.752Z,23.42
2018-11-10T01:47:00.902Z,23.77
2018-11-10T01:48:05.436Z,24.77
2018-11-10T01:49:09.500Z,27.02
2018-11-10T01:50:13.666Z,25.12
2018-11-10T01:51:17.767Z,21.52
2018-11-10T01:52:21.833Z,25.30
2018-11-10T01:53:25.893Z,26.62
2018-11-10T01:54:30.071Z,24.00
2018-11-10T01:55:34.340Z,25.70
2018-11-10T01:56:38.434Z,22.10
2018-11-10T01:57:43.291Z,24.72
2018-11-10T01:58:47.409Z,23.50
2018-11-10T01:59:51.475Z,23.80
2018-11-10T02:00:55.601Z,23.95
2018-11-10T02:02:00.856Z,24.25
2018-11-10T02:03:05.321Z,24.75
2018-11-10T02:04:09.547Z,26.73
2018-11-10T02:05:17.392Z,22.85
2018-11-10T02:06:21.588Z,27.58
2018-11-10T02:07:25.631Z,28.25
2018-11-10T02:08:29.759Z,22.27
2018-11-10T02:09:33.877Z,26.37
2018-11-10T02:10:38.056Z,28.57
2018-11-10T02:11:42.158Z,24.95
2018-11-10T02:12:46.304Z,23.35
2018-11-10T02:13:50.430Z,31.02
2018-11-10T02:14:54.621Z,25.20
2018-11-10T02:15:58.788Z,23.60
2018-11-10T02:17:02.950Z,23.42
2018-11-10T02:18:07.140Z,28.10
2018-11-10T02:19:11.312Z,26.48
2018-11-10T02:20:16.011Z,27.17
2018-11-10T02:21:20.089Z,22.90
2018-11-10T02:22:24.548Z,29.50
2018-11-10T02:23:28.860Z,23.32
2018-11-10T02:24:33.127Z,22.42
2018-11-10T02:25:37.265Z,27.62
2018-11-10T02:26:41.349Z,23.52
2018-11-10T02:27:45.516Z,23.00
2018-11-10T02:28:49.697Z,25.05
2018-11-10T02:29:54.959Z,22.45
2018-11-10T02:30:59.348Z,21.55
2018-11-10T02:32:03.444Z,20.08
2018-11-10T02:33:07.645Z,23.90
2018-11-10T02:34:11.778Z,25.40
2018-11-10T02:35:15.891Z,20.25
2018-11-10T02:36:20.055Z,23.12
2018-11-10T02:37:24.178Z,22.32
2018-11-10T02:38:28.431Z,25.52
2018-11-10T02:39:32.585Z,22.82
2018-11-10T02:40:36.712Z,25.88
2018-11-10T02:41:40.810Z,21.40
2018-11-10T02:42:45.161Z,24.40
2018-11-10T02:43:49.346Z,26.27
2018-11-10T02:44:53.467Z,21.90
2018-11-10T02:45:57.524Z,20.52
2018-11-10T02:47:01.610Z,22.58
2018-11-10T02:48:05.784Z,22.37
2018-11-10T02:49:09.824Z,30.92
2018-11-10T02:50:13.967Z,29.48
2018-11-10T02:51:18.217Z,24.57
2018-11-10T02:52:22.399Z,22.20
2018-11-10T02:53:26.488Z,22.22
2018-11-10T02:54:30.780Z,22.55
2018-11-10T02:55:34.900Z,23.62
2018-11-10T02:56:38.945Z,21.25
2018-11-10T02:57:43.255Z,24.00
2018-11-10T02:58:47.430Z,23.07
2018-11-10T02:59:51.512Z,22.17
2018-11-10T03:00:55.615Z,22.50
2018-11-10T03:01:59.756Z,19.70
2018-11-10T03:03:04.020Z,22.93
2018-11-10T03:04:08.163Z,22.60
2018-11-10T03:05:12.510Z,21.33
2018-11-10T03:06:16.543Z,22.75
2018-11-10T03:07:20.711Z,20.50
2018-11-10T03:08:24.737Z,19.30
2018-11-10T03:09:28.971Z,18.20
2018-11-10T03:10:33.152Z,23.22
2018-11-10T03:11:37.537Z,19.37
2018-11-10T03:12:42.108Z,18.55
2018-11-10T03:13:46.185Z,21.57
2018-11-10T03:14:50.307Z,20.10
2018-11-10T03:15:54.620Z,15.85
2018-11-10T03:16:58.726Z,20.68
2018-11-10T03:18:02.820Z,18.57
2018-11-10T03:19:06.952Z,23.30
2018-11-10T03:20:14.854Z,20.40
2018-11-10T03:21:18.951Z,19.95
2018-11-10T03:22:23.065Z,21.17
2018-11-10T03:23:27.206Z,19.45
2018-11-10T03:24:31.321Z,18.30
2018-11-10T03:25:35.452Z,14.38
2018-11-10T03:26:39.567Z,18.20
2018-11-10T03:27:43.733Z,18.30
2018-11-10T03:28:47.846Z,18.35
2018-11-10T03:29:51.971Z,18.15
2018-11-10T03:30:56.071Z,21.23
2018-11-10T03:32:00.162Z,23.00
2018-11-10T03:33:04.677Z,16.45
2018-11-10T03:34:08.887Z,17.35
2018-11-10T03:35:12.975Z,20.68
2018-11-10T03:36:17.047Z,18.12
2018-11-10T03:37:21.186Z,12.75
2018-11-10T03:38:25.302Z,18.52
2018-11-10T03:39:29.403Z,17.42
2018-11-10T03:40:33.499Z,18.23
2018-11-10T03:41:37.683Z,15.20
2018-11-10T03:42:41.764Z,18.50
2018-11-10T03:43:45.907Z,13.53
2018-11-10T03:44:50.039Z,13.80
2018-11-10T03:45:54.211Z,14.55
2018-11-10T03:46:58.373Z,14.47
2018-11-10T03:48:02.536Z,18.45
2018-11-10T03:49:06.635Z,20.10
2018-11-10T03:50:11.549Z,15.25
2018-11-10T03:51:15.731Z,15.63
2018-11-10T03:52:20.203Z,15.15
2018-11-10T03:53:24.312Z,11.40
2018-11-10T03:54:29.217Z,13.05
2018-11-10T03:55:33.319Z,17.50
2018-11-10T03:56:37.424Z,15.40
2018-11-10T03:57:41.506Z,13.53
2018-11-10T03:58:45.548Z,13.48
2018-11-10T03:59:49.630Z,15.40
2018-11-10T04:00:53.711Z,12.95
2018-11-10T04:01:57.736Z,13.98
2018-11-10T04:03:01.847Z,13.90
2018-11-10T04:04:05.966Z,12.28
2018-11-10T04:05:10.737Z,14.13
2018-11-10T04:06:14.911Z,13.60
2018-11-10T04:07:19.116Z,15.83
2018-11-10T04:08:23.171Z,11.88
2018-11-10T04:09:27.371Z,15.88
2018-11-10T04:10:31.412Z,18.35
2018-11-10T04:11:35.599Z,14.13
2018-11-10T04:12:39.911Z,12.78
2018-11-10T04:13:44.034Z,16.97
2018-11-10T04:14:48.228Z,13.30
2018-11-10T04:15:52.340Z,13.25
2018-11-10T04:16:56.759Z,16.02
2018-11-10T04:18:00.796Z,15.95
2018-11-10T04:19:05.305Z,14.90
2018-11-10T04:20:10.250Z,16.23
2018-11-10T04:21:14.420Z,14.43
2018-11-10T04:22:24.888Z,10.88
2018-11-10T04:23:29.075Z,13.00
2018-11-10T04:24:33.176Z,13.25
2018-11-10T04:25:37.412Z,9.98
2018-11-10T04:26:41.560Z,11.35
2018-11-10T04:27:45.681Z,10.90
2018-11-10T04:28:49.795Z,13.43
2018-11-10T04:29:53.956Z,13.05
2018-11-10T04:30:58.104Z,12.40
2018-11-10T04:32:02.347Z,22.45
2018-11-10T04:33:06.438Z,13.32
2018-11-10T04:34:10.617Z,9.73
2018-11-10T04:35:14.826Z,14.80
2018-11-10T04:36:18.891Z,11.78
2018-11-10T04:37:23.283Z,12.18
2018-11-10T04:38:28.016Z,11.63
2018-11-10T04:39:32.155Z,13.53
2018-11-10T04:40:36.299Z,14.07
2018-11-10T04:41:40.418Z,13.85
2018-11-10T04:42:44.533Z,12.78
2018-11-10T04:43:48.671Z,11.63
2018-11-10T04:44:52.821Z,11.68
2018-11-10T04:45:57.535Z,13.13
2018-11-10T04:47:01.690Z,13.88
2018-11-10T04:48:05.883Z,13.28
2018-11-10T04:49:10.126Z,15.55
2018-11-10T04:50:14.371Z,14.38
2018-11-10T04:51:18.443Z,16.73
2018-11-10T04:52:22.458Z,13.43
2018-11-10T04:53:27.603Z,15.18
2018-11-10T04:54:32.444Z,11.22
2018-11-10T04:55:36.500Z,12.47
2018-11-10T04:56:40.641Z,13.35
2018-11-10T04:57:44.751Z,14.28
2018-11-10T04:58:49.006Z,15.15
2018-11-10T04:59:53.082Z,11.28
2018-11-10T05:00:57.180Z,16.73
2018-11-10T05:02:01.292Z,13.68
2018-11-10T05:03:05.711Z,10.45
2018-11-10T05:04:10.024Z,10.15
2018-11-10T05:05:14.136Z,14.45
2018-11-10T05:06:18.260Z,21.52
2018-11-10T05:07:22.476Z,11.75
2018-11-10T05:08:26.515Z,17.48
2018-11-10T05:09:30.636Z,14.68
2018-11-10T05:10:34.697Z,11.33
2018-11-10T05:11:38.743Z,14.73
2018-11-10T05:12:42.867Z,13.15
2018-11-10T05:13:47.027Z,17.20
2018-11-10T05:14:51.097Z,20.43
2018-11-10T05:15:55.151Z,17.50
2018-11-10T05:16:59.576Z,14.53
2018-11-10T05:18:03.596Z,14.18
2018-11-10T05:19:07.682Z,18.45
2018-11-10T05:20:11.889Z,15.72
2018-11-10T05:21:15.994Z,17.50
2018-11-10T05:22:20.116Z,12.90
2018-11-10T05:23:24.220Z,13.05
2018-11-10T05:24:28.524Z,22.95
2018-11-10T05:25:32.611Z,14.40
2018-11-10T05:26:36.759Z,16.10
2018-11-10T05:27:41.038Z,13.43
2018-11-10T05:28:45.223Z,18.75
2018-11-10T05:29:49.306Z,15.25
2018-11-10T05:30:53.517Z,28.32
2018-11-10T05:31:57.600Z,22.60
2018-11-10T05:33:01.769Z,15.15
2018-11-10T05:34:06.571Z,16.85
2018-11-10T05:35:10.648Z,14.53
2018-11-10T05:36:14.869Z,14.90
2018-11-10T05:37:18.985Z,16.42
2018-11-10T05:38:23.250Z,14.07
2018-11-10T05:39:27.317Z,15.93
2018-11-10T05:40:31.319Z,11.97
2018-11-10T05:41:35.492Z,14.50
2018-11-10T05:42:39.927Z,20.88
2018-11-10T05:43:44.071Z,16.25
2018-11-10T05:44:48.231Z,15.58
2018-11-10T05:45:52.314Z,15.35
2018-11-10T05:46:56.402Z,20.37
2018-11-10T05:48:00.455Z,19.17
2018-11-10T05:49:04.548Z,15.75
2018-11-10T05:50:09.303Z,13.35
2018-11-10T05:51:13.498Z,16.75
2018-11-10T05:52:17.603Z,17.92
2018-11-10T05:53:21.683Z,14.70
2018-11-10T05:54:25.797Z,13.15
2018-11-10T05:55:29.870Z,21.68
2018-11-10T05:56:33.888Z,16.10
2018-11-10T05:57:38.218Z,16.30
2018-11-10T05:58:42.327Z,17.85
2018-11-10T05:59:46.394Z,17.48
2018-11-10T06:00:50.447Z,17.05
2018-11-10T06:01:54.599Z,17.90
2018-11-10T06:02:58.673Z,16.50
2018-11-10T06:04:02.692Z,19.37
2018-11-10T06:05:06.907Z,22.90
2018-11-10T06:06:10.996Z,22.60
2018-11-10T06:07:15.244Z,16.02
2018-11-10T06:08:19.285Z,16.95
2018-11-10T06:09:23.489Z,17.50
2018-11-10T06:10:27.540Z,18.02
2018-11-10T06:11:31.594Z,16.32
2018-11-10T06:12:35.937Z,17.15
2018-11-10T06:13:40.487Z,19.75
2018-11-10T06:14:44.632Z,24.43
2018-11-10T06:15:48.688Z,18.92
2018-11-10T06:16:52.841Z,18.32
2018-11-10T06:17:57.092Z,18.87
2018-11-10T06:19:01.334Z,23.62
2018-11-10T06:20:06.774Z,19.65
2018-11-10T06:21:11.007Z,19.60
2018-11-10T06:22:15.167Z,21.17
2018-11-10T06:23:19.298Z,18.77
2018-11-10T06:24:23.356Z,17.07
2018-11-10T06:25:27.440Z,18.02
2018-11-10T06:26:31.739Z,18.82
2018-11-10T06:27:36.760Z,15.65
2018-11-10T06:28:40.997Z,20.17
2018-11-10T06:29:51.908Z,20.50
2018-11-10T06:30:56.007Z,17.30
2018-11-10T06:32:00.238Z,16.37
2018-11-10T06:33:04.315Z,19.82
2018-11-10T06:34:08.404Z,17.25
2018-11-10T06:35:12.653Z,15.60
2018-11-10T06:36:16.808Z,19.40
2018-11-10T06:37:20.976Z,20.97
2018-11-10T06:38:25.093Z,14.78
2018-11-10T06:39:29.192Z,24.40
2018-11-10T06:40:33.342Z,19.25
2018-11-10T06:41:37.526Z,21.77
2018-11-10T06:42:42.257Z,19.50
2018-11-10T06:43:46.357Z,21.65
2018-11-10T06:44:50.488Z,22.77
2018-11-10T06:45:55.137Z,18.60
2018-11-10T06:46:59.212Z,18.10
2018-11-10T06:48:03.197Z,21.70
2018-11-10T06:49:07.708Z,19.23
2018-11-10T06:50:12.187Z,23.02
2018-11-10T06:51:16.337Z,22.67
2018-11-10T06:52:20.646Z,22.58
2018-11-10T06:53:24.972Z,21.48
2018-11-10T06:54:29.125Z,23.22
2018-11-10T06:55:33.178Z,21.90
2018-11-10T06:56:37.266Z,25.48
2018-11-10T06:57:41.366Z,24.12
2018-11-10T06:58:45.490Z,26.93
2018-11-10T06:59:49.696Z,27.15
2018-11-10T07:00:53.844Z,25.37
2018-11-10T07:01:58.088Z,21.77
2018-11-10T07:03:02.224Z,24.63
2018-11-10T07:04:06.439Z,31.48
2018-11-10T07:05:11.350Z,19.67
2018-11-10T07:06:15.610Z,23.95
2018-11-10T07:07:19.742Z,20.55
2018-11-10T07:08:23.905Z,18.60
2018-11-10T07:09:28.046Z,19.92
2018-11-10T07:10:32.019Z,16.87
2018-11-10T07:11:36.334Z,17.87
2018-11-10T07:12:40.536Z,19.48
2018-11-10T07:13:44.633Z,22.25
2018-11-10T07:14:48.788Z,21.77
2018-11-10T07:15:53.004Z,18.67
2018-11-10T07:16:57.047Z,19.82
2018-11-10T07:18:01.516Z,21.35
2018-11-10T07:19:05.693Z,21.55
2018-11-10T07:20:09.781Z,19.65
2018-11-10T07:21:13.913Z,18.45
2018-11-10T07:22:18.023Z,19.35
2018-11-10T07:23:22.328Z,19.98
2018-11-10T07:24:26.462Z,22.00
2018-11-10T07:25:30.578Z,20.75
2018-11-10T07:26:34.759Z,19.05
2018-11-10T07:27:38.897Z,21.57
2018-11-10T07:28:43.068Z,18.27
2018-11-10T07:29:47.253Z,18.35
2018-11-10T07:30:51.459Z,15.65
2018-11-10T07:31:55.608Z,18.67
2018-11-10T07:32:59.819Z,16.40
2018-11-10T07:34:03.873Z,23.95
2018-11-10T07:35:08.660Z,19.90
2018-11-10T07:36:12.828Z,18.98
2018-11-10T07:37:17.033Z,23.75
2018-11-10T07:38:21.064Z,23.40
2018-11-10T07:39:25.172Z,17.92
2018-11-10T07:40:29.219Z,20.60
2018-11-10T07:41:33.342Z,21.35
2018-11-10T07:42:37.380Z,23.30
2018-11-10T07:43:41.485Z,21.37
2018-11-10T07:44:45.632Z,16.40
2018-11-10T07:45:49.839Z,16.15
2018-11-10T07:46:53.924Z,17.37
2018-11-10T07:47:58.090Z,19.82
2018-11-10T07:49:02.280Z,15.05
2018-11-10T07:50:07.505Z,25.85
2018-11-10T07:51:11.832Z,17.45
2018-11-10T07:52:15.801Z,19.95
2018-11-10T07:53:20.191Z,19.42
2018-11-10T07:54:24.317Z,19.02
2018-11-10T07:55:28.380Z,18.65
2018-11-10T07:56:32.440Z,18.37
2018-11-10T07:57:36.668Z,14.38
2018-11-10T07:58:40.861Z,20.92
2018-11-10T07:59:45.082Z,22.13
2018-11-10T08:00:49.107Z,22.65
2018-11-10T08:01:53.180Z,21.05
2018-11-10T08:02:57.320Z,18.20
2018-11-10T08:04:01.471Z,17.30
2018-11-10T08:05:05.914Z,18.98
2018-11-10T08:06:10.160Z,18.57
2018-11-10T08:07:14.212Z,16.20
2018-11-10T08:08:18.338Z,17.50
2018-11-10T08:09:22.470Z,20.12
2018-11-10T08:10:26.604Z,21.35
2018-11-10T08:11:30.897Z,17.15
2018-11-10T08:12:35.197Z,16.57
2018-11-10T08:13:39.296Z,29.77
2018-11-10T08:14:43.377Z,22.13
2018-11-10T08:15:47.544Z,18.82
2018-11-10T08:16:51.690Z,20.70
2018-11-10T08:17:55.736Z,14.35
2018-11-10T08:19:00.024Z,15.98
2018-11-10T08:20:04.284Z,17.12
2018-11-10T08:21:08.724Z,13.20
2018-11-10T08:22:12.772Z,16.02
2018-11-10T08:23:17.147Z,13.62
2018-11-10T08:24:21.396Z,16.10
2018-11-10T08:25:25.527Z,18.90
2018-11-10T08:26:29.742Z,16.27
2018-11-10T08:27:33.832Z,15.55
2018-11-10T08:28:38.212Z,15.18
2018-11-10T08:29:42.375Z,16.07
2018-11-10T08:30:46.399Z,18.05
2018-11-10T08:31:50.433Z,14.03
2018-11-10T08:32:54.570Z,19.15
2018-11-10T08:33:58.684Z,18.65
2018-11-10T08:35:03.595Z,16.65
2018-11-10T08:36:07.700Z,18.02
2018-11-10T08:37:11.920Z,17.48
2018-11-10T08:38:16.029Z,18.45
2018-11-10T08:39:20.233Z,13.80
2018-11-10T08:40:24.454Z,17.65
2018-11-10T08:41:28.607Z,16.85
2018-11-10T08:42:32.683Z,20.10
2018-11-10T08:43:36.773Z,16.62
2018-11-10T08:44:40.973Z,17.67
2018-11-10T08:45:45.228Z,15.03
2018-11-10T08:46:49.323Z,11.93
2018-11-10T08:47:53.423Z,14.87
2018-11-10T08:48:57.522Z,19.07
2018-11-10T08:50:01.617Z,18.00
2018-11-10T08:51:06.057Z,14.28
2018-11-10T08:52:10.177Z,14.45
2018-11-10T08:53:14.282Z,24.25
2018-11-10T08:54:18.378Z,15.35
2018-11-10T08:55:22.546Z,15.53
2018-11-10T08:56:26.624Z,17.57
2018-11-10T08:57:30.896Z,20.08
2018-11-10T08:58:35.204Z,11.90
2018-11-10T08:59:39.233Z,16.15
2018-11-10T09:00:43.438Z,13.10
2018-11-10T09:01:47.678Z,13.80
2018-11-10T09:02:52.077Z,13.32
2018-11-10T09:03:56.132Z,16.80
2018-11-10T09:05:00.354Z,17.98
2018-11-10T09:06:04.445Z,19.98
2018-11-10T09:07:08.573Z,14.87
2018-11-10T09:08:12.686Z,12.68
2018-11-10T09:09:16.764Z,18.25
2018-11-10T09:10:20.842Z,15.40
2018-11-10T09:11:25.019Z,13.85
2018-11-10T09:12:29.056Z,15.40
2018-11-10T09:13:33.158Z,15.25
2018-11-10T09:14:37.374Z,13.40
2018-11-10T09:15:41.410Z,11.88
2018-11-10T09:16:45.546Z,12.18
2018-11-10T09:17:49.896Z,15.90
2018-11-10T09:18:54.015Z,12.30
2018-11-10T09:19:58.517Z,11.95
2018-11-10T09:21:02.640Z,12.88
2018-11-10T09:22:07.663Z,11.38
2018-11-10T09:23:11.768Z,11.78
2018-11-10T09:24:15.874Z,13.18
2018-11-10T09:25:20.071Z,12.80
2018-11-10T09:26:24.706Z,13.53
2018-11-10T09:27:28.827Z,11.48
2018-11-10T09:28:33.025Z,14.47
2018-11-10T09:29:37.161Z,19.30
2018-11-10T09:30:41.333Z,12.53
2018-11-10T09:31:45.336Z,12.00
2018-11-10T09:32:49.537Z,9.93
2018-11-10T09:33:53.628Z,11.48
2018-11-10T09:34:57.881Z,13.50
2018-11-10T09:36:02.310Z,15.03
2018-11-10T09:37:06.624Z,13.43
2018-11-10T09:38:10.806Z,14.45
2018-11-10T09:39:14.992Z,11.12
2018-11-10T09:40:19.158Z,11.10
2018-11-10T09:41:23.360Z,11.05
2018-11-10T09:42:27.469Z,12.40
2018-11-10T09:43:31.515Z,12.50
2018-11-10T09:44:35.704Z,10.90
2018-11-10T09:45:39.885Z,13.72
2018-11-10T09:46:44.029Z,15.45
2018-11-10T09:47:48.367Z,14.07
2018-11-10T09:48:52.443Z,12.28
2018-11-10T09:49:56.621Z,13.62
2018-11-10T09:51:00.764Z,9.95
2018-11-10T09:52:04.849Z,10.85
2018-11-10T09:53:09.135Z,16.80
2018-11-10T09:54:13.622Z,11.28
2018-11-10T09:55:18.293Z,11.83
2018-11-10T09:56:22.453Z,13.08
2018-11-10T09:57:26.491Z,7.97
2018-11-10T09:58:30.892Z,11.43
2018-11-10T09:59:35.088Z,11.60
2018-11-10T10:00:39.246Z,10.95
2018-11-10T10:01:43.472Z,11.30
2018-11-10T10:02:47.925Z,10.82
2018-11-10T10:03:51.724Z,9.18
2018-11-10T10:04:55.859Z,14.63
2018-11-10T10:06:00.022Z,9.53
2018-11-10T10:07:05.015Z,9.05
2018-11-10T10:08:09.224Z,14.23
2018-11-10T10:09:13.273Z,8.58
2018-11-10T10:10:18.138Z,7.67
2018-11-10T10:11:22.226Z,7.67
2018-11-10T10:12:26.708Z,8.35
2018-11-10T10:13:30.836Z,8.10
2018-11-10T10:14:35.003Z,10.93
2018-11-10T10:15:39.198Z,7.83
2018-11-10T10:16:43.382Z,8.85
2018-11-10T10:17:47.689Z,9.50
2018-11-10T10:18:51.936Z,8.83
2018-11-10T10:19:56.070Z,8.33
2018-11-10T10:21:00.245Z,11.60
2018-11-10T10:22:04.632Z,8.90
2018-11-10T10:23:08.821Z,7.37
2018-11-10T10:24:13.468Z,8.55
2018-11-10T10:25:18.179Z,7.03
2018-11-10T10:26:22.297Z,9.08
2018-11-10T10:27:26.443Z,7.12
2018-11-10T10:28:30.581Z,6.78
2018-11-10T10:29:34.687Z,6.47
2018-11-10T10:30:38.968Z,6.97
2018-11-10T10:31:43.200Z,7.22
2018-11-10T10:32:48.230Z,9.30
2018-11-10T10:33:52.609Z,8.95
2018-11-10T10:34:56.980Z,6.25
2018-11-10T10:36:01.002Z,6.62
2018-11-10T10:37:05.823Z,6.42
2018-11-10T10:38:11.242Z,7.83
2018-11-10T10:39:15.548Z,6.80
2018-11-10T10:40:19.914Z,6.65
2018-11-10T10:41:23.988Z,9.10
2018-11-10T10:42:28.075Z,5.40
2018-11-10T10:43:32.288Z,7.55
2018-11-10T10:44:36.560Z,4.50
2018-11-10T10:45:41.253Z,5.20
2018-11-10T10:46:45.346Z,4.03
2018-11-10T10:47:49.399Z,3.17
2018-11-10T10:48:53.611Z,6.53
2018-11-10T10:49:57.586Z,4.72
2018-11-10T10:51:02.492Z,3.05
2018-11-10T10:52:06.642Z,3.50
2018-11-10T10:53:10.779Z,3.55
2018-11-10T10:54:15.250Z,3.80
2018-11-10T10:55:26.031Z,3.12
2018-11-10T10:56:30.280Z,6.30
2018-11-10T10:57:35.872Z,4.55
2018-11-10T10:58:40.041Z,4.58
2018-11-10T10:59:44.127Z,4.25
2018-11-10T11:00:53.660Z,4.12
2018-11-10T11:02:03.111Z,6.42
2018-11-10T11:03:15.104Z,4.12
2018-11-10T11:04:24.375Z,7.87
2018-11-10T11:05:33.905Z,5.78
2018-11-10T11:06:38.003Z,5.33
2018-11-10T11:07:42.274Z,11.83
2018-11-10T11:08:46.487Z,9.85
2018-11-10T11:09:50.547Z,7.92
2018-11-10T11:10:54.720Z,6.70
2018-11-10T11:11:58.803Z,9.00
2018-11-10T11:13:02.948Z,6.80
2018-11-10T11:14:07.392Z,5.97
2018-11-10T11:15:11.640Z,7.78
2018-11-10T11:16:16.039Z,9.58
2018-11-10T11:17:20.350Z,10.18
2018-11-10T11:18:24.547Z,5.20
2018-11-10T11:19:28.642Z,9.43
2018-11-10T11:20:32.827Z,10.10
2018-11-10T11:21:37.488Z,8.33
2018-11-10T11:22:41.872Z,6.28
2018-11-10T11:23:46.063Z,9.20
2018-11-10T11:24:50.174Z,13.93
2018-11-10T11:25:54.337Z,8.75
2018-11-10T11:26:58.595Z,5.85
2018-11-10T11:28:02.792Z,7.00
2018-11-10T11:29:06.916Z,8.93
2018-11-10T11:30:10.957Z,7.47
2018-11-10T11:31:15.108Z,10.03
2018-11-10T11:32:19.157Z,10.55
2018-11-10T11:33:23.217Z,7.80
2018-11-10T11:34:27.399Z,10.68
2018-11-10T11:35:32.139Z,7.90
2018-11-10T11:36:36.285Z,8.65
2018-11-10T11:37:41.173Z,12.03
2018-11-10T11:38:45.440Z,8.45
2018-11-10T11:39:49.572Z,16.37
2018-11-10T11:40:53.852Z,8.75
2018-11-10T11:41:58.037Z,8.00
2018-11-10T11:43:02.076Z,13.05
2018-11-10T11:44:06.718Z,9.48
2018-11-10T11:45:11.822Z,8.73
2018-11-10T11:46:16.430Z,9.68
2018-11-10T11:47:20.702Z,12.90
2018-11-10T11:48:24.757Z,8.05
2018-11-10T11:49:28.876Z,12.05
2018-11-10T11:50:33.329Z,8.48
2018-11-10T11:51:37.355Z,8.23
2018-11-10T11:52:42.022Z,10.75
2018-11-10T11:53:46.145Z,10.88
2018-11-10T11:54:50.357Z,11.28
2018-11-10T11:55:54.442Z,7.87
2018-11-10T11:56:58.564Z,10.10
2018-11-10T11:58:02.837Z,11.28
2018-11-10T11:59:06.836Z,10.43
2018-11-10T12:00:13.808Z,9.10
2018-11-10T12:01:17.913Z,10.20
2018-11-10T12:02:22.230Z,11.60
2018-11-10T12:03:26.186Z,12.13
2018-11-10T12:04:30.659Z,10.65
2018-11-10T12:05:34.657Z,9.28
2018-11-10T12:06:38.741Z,11.40
2018-11-10T12:07:43.030Z,11.65
2018-11-10T12:08:47.178Z,11.00
2018-11-10T12:09:51.353Z,14.07
2018-11-10T12:10:55.459Z,11.38
2018-11-10T12:11:59.618Z,10.98
2018-11-10T12:13:03.788Z,9.63
2018-11-10T12:14:07.904Z,12.58
2018-11-10T12:15:13.408Z,10.20
2018-11-10T12:16:27.197Z,12.20
2018-11-10T12:17:21.590Z,10.38
2018-11-10T12:18:25.681Z,13.93
2018-11-10T12:19:29.801Z,14.13
2018-11-10T12:20:33.913Z,9.43
2018-11-10T12:21:39.240Z,9.85
2018-11-10T12:22:43.508Z,8.90
2018-11-10T12:23:47.645Z,11.10
2018-11-10T12:24:51.703Z,11.25
2018-11-10T12:25:56.098Z,13.05
2018-11-10T12:27:00.196Z,12.43
2018-11-10T12:28:04.556Z,9.80
2018-11-10T12:29:08.643Z,9.90
2018-11-10T12:30:12.986Z,13.32
2018-11-10T12:31:17.083Z,12.37
2018-11-10T12:32:21.202Z,12.33
2018-11-10T12:33:25.541Z,9.58
2018-11-10T12:34:29.799Z,11.38
2018-11-10T12:35:33.924Z,9.98
2018-11-10T12:36:38.099Z,9.55
2018-11-10T12:37:42.642Z,10.45
2018-11-10T12:38:46.950Z,11.45
2018-11-10T12:39:51.254Z,12.53
2018-11-10T12:40:55.424Z,11.25
2018-11-10T12:41:59.680Z,13.08
2018-11-10T12:43:03.755Z,13.95
2018-11-10T12:44:08.467Z,12.93
2018-11-10T12:45:13.523Z,9.48
2018-11-10T12:46:17.655Z,13.22
2018-11-10T12:47:21.828Z,11.28
2018-11-10T12:48:25.886Z,15.18
2018-11-10T12:49:30.149Z,13.90
2018-11-10T12:50:34.357Z,11.90
2018-11-10T12:51:38.414Z,11.33
2018-11-10T12:52:43.467Z,11.25
2018-11-10T12:53:47.622Z,11.25
2018-11-10T12:54:51.789Z,16.65
2018-11-10T12:55:55.864Z,15.68
2018-11-10T12:57:00.084Z,16.65
2018-11-10T12:58:04.190Z,12.18
2018-11-10T12:59:08.533Z,11.48
2018-11-10T13:00:13.946Z,10.35
2018-11-10T13:01:18.040Z,13.40
2018-11-10T13:02:22.256Z,15.48
2018-11-10T13:03:26.347Z,12.73
2018-11-10T13:04:30.538Z,12.63
2018-11-10T13:05:34.883Z,10.68
2018-11-10T13:06:39.012Z,9.93
2018-11-10T13:07:45.351Z,11.08
2018-11-10T13:08:49.492Z,13.93
2018-11-10T13:09:53.528Z,14.33
2018-11-10T13:10:57.719Z,14.00
2018-11-10T13:12:02.117Z,10.63
2018-11-10T13:13:06.166Z,11.63
2018-11-10T13:14:11.025Z,11.45
2018-11-10T13:15:15.747Z,9.38
2018-11-10T13:16:19.807Z,11.93
2018-11-10T13:17:23.926Z,16.32
2018-11-10T13:18:28.244Z,12.65
2018-11-10T13:19:32.353Z,14.68
2018-11-10T13:20:36.476Z,12.98
2018-11-10T13:21:40.981Z,12.13
2018-11-10T13:22:45.057Z,11.35
2018-11-10T13:23:49.204Z,14.28
2018-11-10T13:24:53.604Z,12.18
2018-11-10T13:25:57.707Z,10.55
2018-11-10T13:27:01.771Z,13.20
2018-11-10T13:28:05.851Z,12.18
2018-11-10T13:29:10.468Z,18.65
2018-11-10T13:30:15.513Z,12.30
2018-11-10T13:31:19.684Z,11.55
2018-11-10T13:32:23.728Z,9.85
2018-11-10T13:33:28.025Z,10.75
2018-11-10T13:34:32.271Z,13.08
2018-11-10T13:35:36.279Z,13.95
2018-11-10T13:36:40.493Z,12.37
2018-11-10T13:37:44.559Z,15.28
2018-11-10T13:38:48.831Z,13.88
2018-11-10T13:39:52.987Z,11.28
2018-11-10T13:40:57.065Z,13.03
2018-11-10T13:42:01.840Z,11.22
2018-11-10T13:43:06.592Z,13.85
2018-11-10T13:44:10.711Z,11.25
2018-11-10T13:45:15.540Z,13.70
2018-11-10T13:46:19.589Z,14.75
2018-11-10T13:47:23.735Z,9.90
2018-11-10T13:48:27.926Z,10.40
2018-11-10T13:49:31.998Z,11.60
2018-11-10T13:50:36.219Z,12.15
2018-11-10T13:51:40.459Z,11.90
2018-11-10T13:52:44.707Z,11.88